Terminal Aerodrome Forecast
Issued by NWS St Louis, MO

Home | Current Version | Previous Version | Text Only | Print | Product List | Glossary On
Versions: 1 2 3 4 5 6 7 8 9 10 11 12 13 14
000
FTUS43 KLSX 162043 AAA
TAFCOU
TAF AMD
KCOU 162043Z 1621/1718 30010KT P6SM SCT050
      TEMPO 1621/1624 BKN025
     FM170400 29005KT P6SM SCT080=

USA.gov is the U.S. government's official web portal to all federal, state and local government web resources and services.